Kea — 9HA2207 — position and weather

sailwx.info

Track history (hours):
 
Tides and Currents Weather Stations Pressure Air Temp Water Temp Dewpoint Dewpoint Depression Visibility Wind Speed Wind Dir Waves Ship Positions

Kea

Last reported at 2015-Feb-27 00:30 UTC. Time now 2015-Apr-28 19:53 UTC.
Position S 34°10' E 025°46'.
Warning: this ship's position is months out of date.

Length 225 m; draft 7.1 m.

Type: Cargo ship. MMSI: 248150000.

Date/timePositionNaut miles runAvg speedWind from/ knotsBaromVisibWave heightAir tempDewpointWater temp
2015-Feb-27 00:30S 34°10' E 025°46'39 9.2
2015-Feb-26 20:15S 33°60' E 026°31'17 9.6
2015-Feb-26 18:27S 33°55' E 026°52'1010.4
2015-Feb-26 17:30S 33°53' E 027°03'12711.5
2015-Feb-26 06:32S 32°27' E 028°55'16111.9
2015-Feb-25 17:03S 30°23' E 030°55'610.5
2015-Feb-25 16:32S 30°18' E 030°58'1010.3
2015-Feb-25 15:33S 30°10' E 031°04'1110.7
2015-Feb-25 14:33S 30°00' E 031°09'6 6.0
2015-Feb-25 13:29S 29°54' E 031°08'2 2.2
2015-Feb-25 12:33S 29°52' E 031°09'2 2.2
2015-Feb-25 11:30S 29°52' E 031°12'2 2.0
2015-Feb-25 10:33S 29°52' E 031°14'7 7.4
2015-Feb-25 09:33S 29°50' E 031°22'4 3.7
2015-Feb-25 08:33S 29°48' E 031°26'1111.5
2015-Feb-25 07:33S 29°45' E 031°38'  
Track history (hours):
 
Tides and Currents Weather Stations Pressure Air Temp Water Temp Dewpoint Dewpoint Depression Visibility Wind Speed Wind Dir Waves Ship Positions

Kea

Last reported at 2015-Feb-27 00:30 UTC. Time now 2015-Apr-28 19:53 UTC.
Position S 34°10' E 025°46'.
Warning: this ship's position is months out of date.

Length 225 m; draft 7.1 m.

Type: Cargo ship. MMSI: 248150000.

Date/timePositionNaut miles runAvg speedWind from/ knotsBaromVisibWave heightAir tempDewpointWater temp
2015-Feb-27 00:30S 34°10' E 025°46'39 9.2
2015-Feb-26 20:15S 33°60' E 026°31'17 9.6
2015-Feb-26 18:27S 33°55' E 026°52'1010.4
2015-Feb-26 17:30S 33°53' E 027°03'12711.5
2015-Feb-26 06:32S 32°27' E 028°55'16111.9
2015-Feb-25 17:03S 30°23' E 030°55'610.5
2015-Feb-25 16:32S 30°18' E 030°58'1010.3
2015-Feb-25 15:33S 30°10' E 031°04'1110.7
2015-Feb-25 14:33S 30°00' E 031°09'6 6.0
2015-Feb-25 13:29S 29°54' E 031°08'2 2.2
2015-Feb-25 12:33S 29°52' E 031°09'2 2.2
2015-Feb-25 11:30S 29°52' E 031°12'2 2.0
2015-Feb-25 10:33S 29°52' E 031°14'7 7.4
2015-Feb-25 09:33S 29°50' E 031°22'4 3.7
2015-Feb-25 08:33S 29°48' E 031°26'1111.5
2015-Feb-25 07:33S 29°45' E 031°38'  

Dump ship's entire track history